createdAt,value
2022-11-28T00:00:44.707Z,25.30
2022-11-28T00:03:32.801Z,24.60
2022-11-28T00:06:08.860Z,25.10
2022-11-28T00:08:41.781Z,25.50
2022-11-28T00:11:17.591Z,26.80
2022-11-28T00:13:50.513Z,25.00
2022-11-28T00:16:25.059Z,26.70
2022-11-28T00:19:00.220Z,26.70
2022-11-28T00:21:32.958Z,23.10
2022-11-28T00:24:06.436Z,25.00
2022-11-28T00:26:41.735Z,28.70
2022-11-28T00:29:14.637Z,27.90
2022-11-28T00:31:47.187Z,27.90
2022-11-28T00:34:19.786Z,23.30
2022-11-28T00:36:52.678Z,29.20
2022-11-28T00:39:25.593Z,24.30
2022-11-28T00:41:58.333Z,25.00
2022-11-28T00:44:30.857Z,25.70
2022-11-28T00:47:03.512Z,23.30
2022-11-28T00:49:36.159Z,25.20
2022-11-28T00:52:08.870Z,25.90
2022-11-28T00:54:42.100Z,23.60
2022-11-28T00:57:14.814Z,27.80
2022-11-28T00:59:47.316Z,27.20
2022-11-28T01:02:20.016Z,28.30
2022-11-28T01:04:52.554Z,26.90
2022-11-28T01:07:25.089Z,26.00
2022-11-28T01:09:57.611Z,26.50
2022-11-28T01:12:30.043Z,25.10
2022-11-28T01:15:02.620Z,25.00
2022-11-28T01:17:35.103Z,25.80
2022-11-28T01:20:12.456Z,25.20
2022-11-28T01:22:44.928Z,24.20
2022-11-28T01:25:17.501Z,25.30
2022-11-28T01:27:49.984Z,27.60
2022-11-28T01:30:22.473Z,25.90
2022-11-28T01:32:58.039Z,21.60
2022-11-28T01:35:30.786Z,26.80
2022-11-28T01:38:03.263Z,24.70
2022-11-28T01:40:45.354Z,26.30
2022-11-28T01:43:17.916Z,24.20
2022-11-28T01:45:50.384Z,27.30
2022-11-28T01:48:27.858Z,24.70
2022-11-28T01:51:04.200Z,26.20
2022-11-28T01:53:41.107Z,26.50
2022-11-28T01:56:19.033Z,27.90
2022-11-28T01:58:55.571Z,27.40
2022-11-28T02:01:28.532Z,25.00
2022-11-28T02:04:01.773Z,26.60
2022-11-28T02:06:35.280Z,23.60
2022-11-28T02:09:10.939Z,24.40
2022-11-28T02:12:12.880Z,24.80
2022-11-28T02:15:20.216Z,23.40
2022-11-28T02:18:11.293Z,18.90
2022-11-28T02:21:29.369Z,23.10
2022-11-28T02:24:54.027Z,27.50
2022-11-28T02:27:54.156Z,27.20
2022-11-28T02:30:35.392Z,25.40
2022-11-28T02:33:22.573Z,27.10
2022-11-28T02:36:04.869Z,28.90
2022-11-28T02:38:49.693Z,21.80
2022-11-28T02:41:32.710Z,22.70
2022-11-28T02:44:14.230Z,23.80
2022-11-28T02:46:54.503Z,22.80
2022-11-28T02:49:34.243Z,22.50
2022-11-28T02:52:13.438Z,26.80
2022-11-28T02:54:47.148Z,27.00
2022-11-28T02:57:19.783Z,27.00
2022-11-28T02:59:55.599Z,25.60
2022-11-28T03:02:31.568Z,23.60
2022-11-28T03:05:14.072Z,25.60
2022-11-28T03:08:22.967Z,26.60
2022-11-28T03:11:04.921Z,24.50
2022-11-28T03:13:48.796Z,23.30
2022-11-28T03:16:30.622Z,26.90
2022-11-28T03:19:12.062Z,27.10
2022-11-28T03:21:50.195Z,25.00
2022-11-28T03:24:33.711Z,24.70
2022-11-28T03:27:11.551Z,23.40
2022-11-28T03:29:49.848Z,24.50
2022-11-28T03:32:27.467Z,23.10
2022-11-28T03:35:11.885Z,23.60
2022-11-28T03:37:49.408Z,22.80
2022-11-28T03:40:27.688Z,25.70
2022-11-28T03:43:06.346Z,24.30
2022-11-28T03:45:43.047Z,21.60
2022-11-28T03:48:19.428Z,24.30
2022-11-28T03:50:59.509Z,23.60
2022-11-28T03:53:37.416Z,19.30
2022-11-28T03:56:16.068Z,26.70
2022-11-28T03:58:55.951Z,23.10
2022-11-28T04:01:37.960Z,24.20
2022-11-28T04:04:21.454Z,24.60
2022-11-28T04:06:59.792Z,23.40
2022-11-28T04:09:44.222Z,20.70
2022-11-28T04:12:25.164Z,22.40
2022-11-28T04:15:01.887Z,23.80
2022-11-28T04:17:44.528Z,22.60
2022-11-28T04:20:25.185Z,21.80
2022-11-28T04:23:02.191Z,24.60
2022-11-28T04:25:36.770Z,21.70
2022-11-28T04:28:16.207Z,23.10
2022-11-28T04:30:51.945Z,23.70
2022-11-28T04:33:28.100Z,26.00
2022-11-28T04:36:02.877Z,23.10
2022-11-28T04:38:37.041Z,20.50
2022-11-28T04:41:16.041Z,20.10
2022-11-28T04:43:54.771Z,26.90
2022-11-28T04:46:32.727Z,22.00
2022-11-28T04:49:05.373Z,23.90
2022-11-28T04:51:46.032Z,24.40
2022-11-28T04:54:25.588Z,21.00
2022-11-28T04:57:03.301Z,25.10
2022-11-28T04:59:35.947Z,21.20
2022-11-28T05:02:09.891Z,26.40
2022-11-28T05:04:44.774Z,26.30
2022-11-28T05:07:17.707Z,21.90
2022-11-28T05:09:51.015Z,25.70
2022-11-28T05:12:23.582Z,26.30
2022-11-28T05:14:56.244Z,23.20
2022-11-28T05:17:28.752Z,26.60
2022-11-28T05:20:01.721Z,26.90
2022-11-28T05:22:34.274Z,23.90
2022-11-28T05:25:07.539Z,20.90
2022-11-28T05:27:40.057Z,22.50
2022-11-28T05:30:16.167Z,27.40
2022-11-28T05:32:49.219Z,26.00
2022-11-28T05:35:21.777Z,23.90
2022-11-28T05:37:54.287Z,26.10
2022-11-28T05:40:26.799Z,25.10
2022-11-28T05:42:59.283Z,28.70
2022-11-28T05:45:31.815Z,30.70
2022-11-28T05:48:04.356Z,23.10
2022-11-28T05:50:40.141Z,29.40
2022-11-28T05:53:13.515Z,25.10
2022-11-28T05:55:46.554Z,27.00
2022-11-28T05:58:19.028Z,29.30
2022-11-28T06:00:51.693Z,25.30
2022-11-28T06:03:24.215Z,28.30
2022-11-28T06:05:56.774Z,32.70
2022-11-28T06:08:29.302Z,22.20
2022-11-28T06:11:02.522Z,25.00
2022-11-28T06:13:35.184Z,26.00
2022-11-28T06:16:11.828Z,27.10
2022-11-28T06:18:44.418Z,23.30
2022-11-28T06:21:17.550Z,27.20
2022-11-28T06:23:50.083Z,29.80
2022-11-28T06:26:25.473Z,26.50
2022-11-28T06:28:58.622Z,25.80
2022-11-28T06:31:32.437Z,26.00
2022-11-28T06:34:04.915Z,25.10
2022-11-28T06:36:37.493Z,26.30
2022-11-28T06:39:11.211Z,24.40
2022-11-28T06:41:44.238Z,23.90
2022-11-28T06:44:18.868Z,29.80
2022-11-28T06:46:51.546Z,28.40
2022-11-28T06:49:24.288Z,25.30
2022-11-28T06:51:57.193Z,27.80
2022-11-28T06:54:30.026Z,29.00
2022-11-28T06:57:02.687Z,25.30
2022-11-28T06:59:35.297Z,28.20
2022-11-28T07:02:08.322Z,28.60
2022-11-28T07:04:41.311Z,23.80
2022-11-28T07:07:16.475Z,30.10
2022-11-28T07:09:49.382Z,27.60
2022-11-28T07:12:21.932Z,28.00
2022-11-28T07:14:54.539Z,27.00
2022-11-28T07:17:27.352Z,27.50
2022-11-28T07:19:59.931Z,29.00
2022-11-28T07:22:32.405Z,25.70
2022-11-28T07:25:05.018Z,27.70
2022-11-28T07:27:37.480Z,30.80
2022-11-28T07:30:12.714Z,36.30
2022-11-28T07:32:45.336Z,27.60
2022-11-28T07:35:17.976Z,30.40
2022-11-28T07:37:50.590Z,31.70
2022-11-28T07:40:23.255Z,29.20
2022-11-28T07:42:55.956Z,27.20
2022-11-28T07:45:47.149Z,25.80
2022-11-28T07:48:21.088Z,26.00
2022-11-28T07:50:53.589Z,29.80
2022-11-28T07:53:26.168Z,25.80
2022-11-28T07:56:01.861Z,25.60
2022-11-28T07:58:34.872Z,22.80
2022-11-28T08:01:15.524Z,24.20
2022-11-28T08:03:48.730Z,25.30
2022-11-28T08:06:23.772Z,25.90
2022-11-28T08:08:58.378Z,23.70
2022-11-28T08:11:31.836Z,23.00
2022-11-28T08:14:04.732Z,21.00
2022-11-28T08:16:41.374Z,26.00
2022-11-28T08:19:14.241Z,26.20
2022-11-28T08:21:46.696Z,23.70
2022-11-28T08:24:19.272Z,22.80
2022-11-28T08:26:51.730Z,24.60
2022-11-28T08:29:24.225Z,23.90
2022-11-28T08:31:56.866Z,23.40
2022-11-28T08:34:29.666Z,23.70
2022-11-28T08:37:02.211Z,25.20
2022-11-28T08:39:34.916Z,23.50
2022-11-28T08:42:07.984Z,23.00
2022-11-28T08:44:40.820Z,22.50
2022-11-28T08:47:13.404Z,24.30
2022-11-28T08:49:46.225Z,22.50
2022-11-28T08:52:19.041Z,25.00
2022-11-28T08:54:51.563Z,21.90
2022-11-28T08:57:24.322Z,22.20
2022-11-28T08:59:56.922Z,22.70
2022-11-28T09:02:29.616Z,26.80
2022-11-28T09:05:02.922Z,24.40
2022-11-28T09:07:35.435Z,23.50
2022-11-28T09:10:10.336Z,23.00
2022-11-28T09:12:43.184Z,21.80
2022-11-28T09:15:16.085Z,20.60
2022-11-28T09:17:48.666Z,20.10
2022-11-28T09:20:21.968Z,21.50
2022-11-28T09:22:54.477Z,20.40
2022-11-28T09:25:27.168Z,21.00
2022-11-28T09:28:01.437Z,22.00
2022-11-28T09:30:34.201Z,20.40
2022-11-28T09:33:07.351Z,19.30
2022-11-28T09:35:42.147Z,21.50
2022-11-28T09:38:14.656Z,22.50
2022-11-28T09:40:49.125Z,22.80
2022-11-28T09:43:30.111Z,20.10
2022-11-28T09:46:07.386Z,20.30
2022-11-28T09:48:44.382Z,22.70
2022-11-28T09:51:27.141Z,23.40
2022-11-28T09:54:09.255Z,21.40
2022-11-28T09:56:42.163Z,23.20
2022-11-28T09:59:28.557Z,23.80
2022-11-28T10:02:16.388Z,22.00
2022-11-28T10:05:00.107Z,23.10
2022-11-28T10:07:44.561Z,20.50
2022-11-28T10:10:30.297Z,21.30
2022-11-28T10:13:14.728Z,20.10
2022-11-28T10:16:02.739Z,20.60
2022-11-28T10:18:44.856Z,21.30
2022-11-28T10:21:29.492Z,22.00
2022-11-28T10:24:06.062Z,19.60
2022-11-28T10:26:40.151Z,18.20
2022-11-28T10:29:26.775Z,19.80
2022-11-28T10:32:02.902Z,18.50
2022-11-28T10:34:42.513Z,20.80
2022-11-28T10:37:20.984Z,20.90
2022-11-28T10:39:54.317Z,18.50
2022-11-28T10:42:33.946Z,15.90
2022-11-28T10:45:19.656Z,16.30
2022-11-28T10:48:38.668Z,17.30
2022-11-28T10:51:21.291Z,15.80
2022-11-28T10:54:11.590Z,15.70
2022-11-28T10:56:52.722Z,16.70
2022-11-28T10:59:37.331Z,15.70
2022-11-28T11:02:31.043Z,15.00
2022-11-28T11:05:03.683Z,14.30
2022-11-28T11:07:37.225Z,16.00
2022-11-28T11:10:21.017Z,16.10
2022-11-28T11:12:54.783Z,15.30
2022-11-28T11:15:33.734Z,14.90
2022-11-28T11:18:22.137Z,15.90
2022-11-28T11:21:08.509Z,16.00
2022-11-28T11:23:41.047Z,13.90
2022-11-28T11:26:24.548Z,13.40
2022-11-28T11:28:57.571Z,13.40
2022-11-28T11:31:33.290Z,14.40
2022-11-28T11:34:17.096Z,15.80
2022-11-28T11:36:50.128Z,13.60
2022-11-28T11:39:26.557Z,12.80
2022-11-28T11:42:23.343Z,12.90
2022-11-28T11:44:58.712Z,14.00
2022-11-28T11:47:46.209Z,14.10
2022-11-28T11:50:24.550Z,13.80
2022-11-28T11:53:15.278Z,13.30
2022-11-28T11:55:53.426Z,12.50
2022-11-28T11:58:30.367Z,13.10
2022-11-28T12:01:04.426Z,11.50
2022-11-28T12:03:42.013Z,13.80
2022-11-28T12:06:23.215Z,15.90
2022-11-28T12:09:02.647Z,13.10
2022-11-28T12:11:45.469Z,13.30
2022-11-28T12:14:33.816Z,10.10
2022-11-28T12:20:37.745Z,14.30
2022-11-28T12:23:26.146Z,13.60
2022-11-28T12:26:10.741Z,12.60
2022-11-28T12:29:01.354Z,11.70
2022-11-28T12:31:46.113Z,12.70
2022-11-28T12:34:31.701Z,12.80
2022-11-28T12:37:16.376Z,11.10
2022-11-28T12:40:01.038Z,13.20
2022-11-28T12:43:03.098Z,15.70
2022-11-28T12:45:48.859Z,19.30
2022-11-28T12:48:40.569Z,13.90
2022-11-28T12:51:24.502Z,11.90
2022-11-28T12:54:17.931Z,11.10
2022-11-28T12:57:03.482Z,15.30
2022-11-28T12:59:44.796Z,13.90
2022-11-28T13:02:33.320Z,13.40
2022-11-28T13:05:32.584Z,11.00
2022-11-28T13:08:48.260Z,11.40
2022-11-28T13:11:38.777Z,11.30
2022-11-28T13:14:23.396Z,12.80
2022-11-28T13:17:13.662Z,11.30
2022-11-28T13:19:56.357Z,11.90
2022-11-28T13:22:37.176Z,11.10
2022-11-28T13:25:23.834Z,10.20
2022-11-28T13:28:07.972Z,10.80
2022-11-28T13:30:47.850Z,10.30
2022-11-28T13:33:37.196Z,10.70
2022-11-28T13:39:18.564Z,11.60
2022-11-28T13:42:28.298Z,13.40
2022-11-28T13:45:01.473Z,12.60
2022-11-28T13:47:37.182Z,12.20
2022-11-28T13:50:39.325Z,11.90
2022-11-28T13:53:28.683Z,13.60
2022-11-28T13:56:27.741Z,13.10
2022-11-28T13:59:02.903Z,14.20
2022-11-28T14:01:49.766Z,17.10
2022-11-28T14:04:22.811Z,18.70
2022-11-28T14:07:00.138Z,16.80
2022-11-28T14:09:44.802Z,17.20
2022-11-28T14:12:26.141Z,20.80
2022-11-28T14:15:23.177Z,19.10
2022-11-28T14:18:31.463Z,18.50
2022-11-28T14:21:17.952Z,18.30
2022-11-28T14:23:59.233Z,16.50
2022-11-28T14:26:37.365Z,16.10
2022-11-28T14:29:22.661Z,13.80
2022-11-28T14:32:22.180Z,15.70
2022-11-28T14:34:51.019Z,14.10
2022-11-28T14:37:56.267Z,16.50
2022-11-28T14:41:11.849Z,16.50
2022-11-28T14:43:46.926Z,21.30
2022-11-28T14:46:32.705Z,19.30
2022-11-28T14:49:27.193Z,23.00
2022-11-28T14:52:41.198Z,20.40
2022-11-28T14:55:25.939Z,20.50
2022-11-28T14:58:03.127Z,19.10
2022-11-28T15:00:47.643Z,15.60
2022-11-28T15:03:37.276Z,15.70
2022-11-28T15:06:19.208Z,15.00
2022-11-28T15:09:04.613Z,15.50
2022-11-28T15:12:08.611Z,14.00
2022-11-28T15:14:43.730Z,14.20
2022-11-28T15:17:21.070Z,15.30
2022-11-28T15:19:54.949Z,14.80
2022-11-28T15:22:42.824Z,15.40
2022-11-28T15:25:25.281Z,16.00
2022-11-28T15:28:00.333Z,16.00
2022-11-28T15:30:34.193Z,14.70
2022-11-28T15:33:07.244Z,15.10
2022-11-28T15:35:40.145Z,18.70
2022-11-28T15:38:20.103Z,16.10
2022-11-28T15:40:55.853Z,18.90
2022-11-28T15:43:30.757Z,19.50
2022-11-28T15:46:06.034Z,26.50
2022-11-28T15:48:48.283Z,20.90
2022-11-28T15:51:30.541Z,19.20
2022-11-28T15:54:04.864Z,19.70
2022-11-28T15:56:38.619Z,20.40
2022-11-28T15:59:13.769Z,23.20
2022-11-28T16:01:47.395Z,20.80
2022-11-28T16:04:25.124Z,20.20
2022-11-28T16:07:00.311Z,21.20
2022-11-28T16:09:36.156Z,20.20
2022-11-28T16:12:15.706Z,19.90
2022-11-28T16:14:49.647Z,20.80
2022-11-28T16:17:27.299Z,20.70
2022-11-28T16:20:00.641Z,22.20
2022-11-28T16:22:37.789Z,19.70
2022-11-28T16:25:24.491Z,19.50
2022-11-28T16:27:57.825Z,18.60
2022-11-28T16:30:47.637Z,19.80
2022-11-28T16:33:42.231Z,18.70
2022-11-28T16:36:27.372Z,18.50
2022-11-28T16:39:14.596Z,18.00
2022-11-28T16:41:52.233Z,18.30
2022-11-28T16:44:26.687Z,18.50
2022-11-28T16:47:00.571Z,17.40
2022-11-28T16:49:40.636Z,16.20
2022-11-28T16:52:47.184Z,15.20
2022-11-28T16:55:46.825Z,16.90
2022-11-28T16:58:23.463Z,16.90
2022-11-28T17:01:06.516Z,16.20
2022-11-28T17:03:51.760Z,16.10
2022-11-28T17:06:34.224Z,16.10
2022-11-28T17:09:08.280Z,19.20
2022-11-28T17:11:45.052Z,18.20
2022-11-28T17:14:17.917Z,22.50
2022-11-28T17:16:50.755Z,19.90
2022-11-28T17:19:23.306Z,18.30
2022-11-28T17:21:58.845Z,18.20
2022-11-28T17:24:35.649Z,24.00
2022-11-28T17:27:09.170Z,18.20
2022-11-28T17:29:42.698Z,19.50
2022-11-28T17:32:16.986Z,19.50
2022-11-28T17:34:49.589Z,20.30
2022-11-28T17:37:22.374Z,24.00
2022-11-28T17:40:12.457Z,22.70
2022-11-28T17:42:45.061Z,20.80
2022-11-28T17:45:18.247Z,20.30
2022-11-28T17:47:50.825Z,19.60
2022-11-28T17:50:23.486Z,21.50
2022-11-28T17:52:56.360Z,21.80
2022-11-28T17:55:29.142Z,19.80
2022-11-28T17:58:01.769Z,18.70
2022-11-28T18:00:34.336Z,23.00
2022-11-28T18:03:07.791Z,23.90
2022-11-28T18:05:43.564Z,23.40
2022-11-28T18:08:21.923Z,22.60
2022-11-28T18:11:04.931Z,22.70
2022-11-28T18:13:41.512Z,21.00
2022-11-28T18:16:15.329Z,20.70
2022-11-28T18:18:48.781Z,21.20
2022-11-28T18:21:22.048Z,21.20
2022-11-28T18:23:54.985Z,20.90
2022-11-28T18:26:29.077Z,18.40
2022-11-28T18:29:03.972Z,20.30
2022-11-28T18:31:38.613Z,20.20
2022-11-28T18:34:12.370Z,19.30
2022-11-28T18:36:45.350Z,22.50
2022-11-28T18:39:18.160Z,18.80
2022-11-28T18:41:51.083Z,24.20
2022-11-28T18:44:24.140Z,19.40
2022-11-28T18:46:57.176Z,19.70
2022-11-28T18:49:30.128Z,19.60
2022-11-28T18:52:03.126Z,17.80
2022-11-28T18:54:38.591Z,18.00
2022-11-28T18:57:12.196Z,16.70
2022-11-28T18:59:52.878Z,19.20
2022-11-28T19:02:28.027Z,19.20
2022-11-28T19:05:01.361Z,19.20
2022-11-28T19:07:33.943Z,18.70
2022-11-28T19:10:07.446Z,32.30
2022-11-28T19:12:41.326Z,24.70
2022-11-28T19:15:14.396Z,22.60
2022-11-28T19:17:47.113Z,18.60
2022-11-28T19:20:20.145Z,22.10
2022-11-28T19:22:53.555Z,20.30
2022-11-28T19:25:27.372Z,21.20
2022-11-28T19:28:00.148Z,22.20
2022-11-28T19:30:33.119Z,19.60
2022-11-28T19:33:06.590Z,20.30
2022-11-28T19:35:39.424Z,19.60
2022-11-28T19:38:12.187Z,19.60
2022-11-28T19:40:45.182Z,21.80
2022-11-28T19:43:17.775Z,22.20
2022-11-28T19:45:59.422Z,21.80
2022-11-28T19:48:34.759Z,21.70
2022-11-28T19:51:09.466Z,19.60
2022-11-28T19:53:45.031Z,22.80
2022-11-28T19:56:20.266Z,20.60
2022-11-28T19:58:53.286Z,21.20
2022-11-28T20:01:27.085Z,22.80
2022-11-28T20:04:00.558Z,21.60
2022-11-28T20:06:35.336Z,23.30
2022-11-28T20:09:12.624Z,18.20
2022-11-28T20:11:47.809Z,24.70
2022-11-28T20:14:22.364Z,23.00
2022-11-28T20:16:55.787Z,24.90
2022-11-28T20:19:29.236Z,24.20
2022-11-28T20:22:02.566Z,21.80
2022-11-28T20:24:35.459Z,24.20
2022-11-28T20:27:08.731Z,20.40
2022-11-28T20:29:41.632Z,19.90
2022-11-28T20:32:14.634Z,19.30
2022-11-28T20:34:48.247Z,20.40
2022-11-28T20:37:21.099Z,20.10
2022-11-28T20:39:53.895Z,19.00
2022-11-28T20:42:26.651Z,17.40
2022-11-28T20:44:59.133Z,19.50
2022-11-28T20:47:34.603Z,15.60
2022-11-28T20:50:09.615Z,17.50
2022-11-28T20:52:42.255Z,19.10
2022-11-28T20:55:15.512Z,18.70
2022-11-28T20:57:48.394Z,18.20
2022-11-28T21:00:26.618Z,20.40
2022-11-28T21:02:59.535Z,19.30
2022-11-28T21:05:32.103Z,19.00
2022-11-28T21:08:04.989Z,20.70
2022-11-28T21:10:38.706Z,20.30
2022-11-28T21:13:11.441Z,15.90
2022-11-28T21:15:46.733Z,20.90
2022-11-28T21:18:19.536Z,21.50
2022-11-28T21:20:53.046Z,23.00
2022-11-28T21:23:25.750Z,22.00
2022-11-28T21:25:58.324Z,22.60
2022-11-28T21:28:30.845Z,22.00
2022-11-28T21:31:07.598Z,20.90
2022-11-28T21:33:40.358Z,23.60
2022-11-28T21:36:15.391Z,20.40
2022-11-28T21:38:52.034Z,23.00
2022-11-28T21:41:28.538Z,26.80
2022-11-28T21:44:02.275Z,25.40
2022-11-28T21:46:34.866Z,22.70
2022-11-28T21:49:07.438Z,24.90
2022-11-28T21:51:43.393Z,27.50
2022-11-28T21:54:16.556Z,26.10
2022-11-28T21:56:50.368Z,24.80
2022-11-28T21:59:23.821Z,28.30
2022-11-28T22:01:56.611Z,23.80
2022-11-28T22:04:29.278Z,26.80
2022-11-28T22:07:01.807Z,22.80
2022-11-28T22:09:34.911Z,23.90
2022-11-28T22:12:09.055Z,22.90
2022-11-28T22:14:41.588Z,20.50
2022-11-28T22:17:14.369Z,23.90
2022-11-28T22:19:47.666Z,23.40
2022-11-28T22:22:20.289Z,24.40
2022-11-28T22:24:52.827Z,24.50
2022-11-28T22:27:25.629Z,22.40
2022-11-28T22:29:58.792Z,30.70
2022-11-28T22:32:34.447Z,27.10
2022-11-28T22:35:09.430Z,22.10
2022-11-28T22:37:42.226Z,24.00
2022-11-28T22:40:17.501Z,21.60
2022-11-28T22:42:50.121Z,21.00
2022-11-28T22:45:23.036Z,20.30
2022-11-28T22:47:55.789Z,21.40
2022-11-28T22:50:28.332Z,23.60
2022-11-28T22:53:00.914Z,21.80
2022-11-28T22:55:35.665Z,26.30
2022-11-28T22:58:08.524Z,22.80
2022-11-28T23:00:41.382Z,22.40
2022-11-28T23:03:14.293Z,20.10
2022-11-28T23:05:49.299Z,26.50
2022-11-28T23:08:24.060Z,24.30
2022-11-28T23:10:57.286Z,21.40
2022-11-28T23:13:30.132Z,23.00
2022-11-28T23:16:15.213Z,23.00
2022-11-28T23:18:50.430Z,25.00
2022-11-28T23:21:24.916Z,24.80
2022-11-28T23:23:57.752Z,23.90
2022-11-28T23:26:33.919Z,24.30
2022-11-28T23:29:08.631Z,26.60
2022-11-28T23:31:42.824Z,22.70
2022-11-28T23:34:16.419Z,24.00
2022-11-28T23:36:49.762Z,22.60
2022-11-28T23:39:24.327Z,23.10
2022-11-28T23:41:59.043Z,20.50
2022-11-28T23:44:31.612Z,22.20
2022-11-28T23:47:04.332Z,24.40
2022-11-28T23:49:36.910Z,25.60
2022-11-28T23:52:09.772Z,26.50
2022-11-28T23:54:42.484Z,23.90
2022-11-28T23:57:15.407Z,21.80
2022-11-28T23:59:47.910Z,20.90
